Time;durP1;ratioP1;P1;durP2;ratioP2;P2;SDS_P1;SDS_P2;PMS_P1;PMS_P2;Temp;Humidity;BMP_temperature;BMP_pressure;BME280_temperature;BME280_humidity;BME280_pressure;Samples;Min_cycle;Max_cycle;Signal;HPM_P1;HPM_P2
2022/01/01 00:01:29;;;;;;;78.80;36.20;;;5.50;95.10;;;;;;5016745;28;20658;-79
2022/01/01 00:03:55;;;;;;;77.63;36.43;;;5.50;95.00;;;;;;5006575;28;20229;-77
2022/01/01 00:06:21;;;;;;;77.73;35.47;;;5.50;95.00;;;;;;5010908;28;20185;-76
2022/01/01 00:08:46;;;;;;;91.80;38.30;;;5.50;95.10;;;;;;5012434;28;20236;-82
2022/01/01 00:11:13;;;;;;;83.40;36.07;;;5.50;95.20;;;;;;5022167;28;20191;-80
2022/01/01 00:13:39;;;;;;;82.53;38.13;;;5.50;95.10;;;;;;5020222;28;20196;-80
2022/01/01 00:16:09;;;;;;;82.63;36.23;;;5.50;95.20;;;;;;5021070;28;20180;-79
2022/01/01 00:18:36;;;;;;;81.67;38.20;;;5.50;95.20;;;;;;5022415;28;20188;-80
2022/01/01 00:21:03;;;;;;;73.20;33.17;;;5.50;95.30;;;;;;5023132;28;20188;-79
2022/01/01 00:23:28;;;;;;;89.67;36.50;;;5.40;95.40;;;;;;5022181;28;20357;-80
2022/01/01 00:25:54;;;;;;;81.00;34.93;;;5.30;96.20;;;;;;5021140;28;20267;-79
2022/01/01 00:28:20;;;;;;;78.17;36.07;;;5.30;96.50;;;;;;5019480;28;20187;-79
2022/01/01 00:30:45;;;;;;;81.97;36.00;;;5.30;96.30;;;;;;5022849;28;20668;-79
2022/01/01 00:33:11;;;;;;;70.10;32.73;;;5.30;96.20;;;;;;5023011;28;20200;-79
2022/01/01 00:35:38;;;;;;;57.87;30.43;;;5.30;96.20;;;;;;5021005;28;20268;-80
2022/01/01 00:38:04;;;;;;;74.70;33.13;;;5.30;96.20;;;;;;5015520;28;21096;-78
2022/01/01 00:40:29;;;;;;;67.33;32.47;;;5.30;96.30;;;;;;5012810;28;20231;-78
2022/01/01 00:42:55;;;;;;;66.40;30.43;;;5.30;96.30;;;;;;5004768;28;20212;-78
2022/01/01 00:45:21;;;;;;;63.73;30.43;;;5.30;96.30;;;;;;5008342;28;20184;-80
2022/01/01 00:47:47;;;;;;;76.93;34.83;;;5.30;96.40;;;;;;5013081;28;20180;-81
2022/01/01 00:50:13;;;;;;;66.87;33.40;;;5.30;96.20;;;;;;5023903;28;20185;-82
2022/01/01 00:52:39;;;;;;;72.37;32.90;;;5.30;96.10;;;;;;5018967;28;20200;-82
2022/01/01 00:55:05;;;;;;;79.67;37.53;;;5.30;96.20;;;;;;5018507;28;20188;-82
2022/01/01 00:57:31;;;;;;;79.47;37.53;;;5.20;96.30;;;;;;5021158;28;20188;-82
2022/01/01 00:59:56;;;;;;;81.13;33.80;;;5.20;96.50;;;;;;5024454;28;20195;-82
2022/01/01 01:02:22;;;;;;;65.87;30.00;;;5.20;96.80;;;;;;5021120;28;20235;-81
2022/01/01 01:04:48;;;;;;;61.60;29.90;;;5.20;96.90;;;;;;5024463;28;20195;-82
2022/01/01 01:07:14;;;;;;;75.73;30.03;;;5.20;96.90;;;;;;5023572;28;20211;-81
2022/01/01 01:09:39;;;;;;;64.20;29.13;;;5.20;97.10;;;;;;5022391;28;20183;-82
2022/01/01 01:12:05;;;;;;;69.63;32.40;;;5.20;97.20;;;;;;5024229;28;20199;-82
2022/01/01 01:14:40;;;;;;;72.47;32.27;;;5.20;97.10;;;;;;5022896;28;20197;-82
2022/01/01 01:17:05;;;;;;;70.43;32.83;;;5.20;97.20;;;;;;5024133;28;20184;-81
2022/01/01 01:19:31;;;;;;;76.00;34.00;;;5.20;97.00;;;;;;5023413;28;20192;-82
2022/01/01 01:21:58;;;;;;;70.20;32.70;;;5.20;97.00;;;;;;5024894;28;20267;-81
2022/01/01 01:24:25;;;;;;;74.10;34.37;;;5.20;96.90;;;;;;5024081;28;20678;-81
2022/01/01 01:26:52;;;;;;;69.20;31.77;;;5.20;96.80;;;;;;5022517;28;20217;-81
2022/01/01 01:29:19;;;;;;;68.73;30.73;;;5.20;96.80;;;;;;5023454;28;20176;-81
2022/01/01 01:31:46;;;;;;;70.73;32.50;;;5.20;96.90;;;;;;5024377;28;20212;-81
2022/01/01 01:34:12;;;;;;;71.43;31.63;;;5.20;97.00;;;;;;5023019;28;20184;-81
2022/01/01 01:36:38;;;;;;;76.37;33.80;;;5.20;97.00;;;;;;5023531;28;20735;-81
2022/01/01 01:39:04;;;;;;;69.90;33.23;;;5.20;97.00;;;;;;5024811;28;20184;-81
2022/01/01 01:41:31;;;;;;;71.43;32.87;;;5.20;96.90;;;;;;5015870;28;20327;-81
2022/01/01 01:44:02;;;;;;;52.90;26.93;;;5.20;97.10;;;;;;5027204;28;20915;-81
2022/01/01 01:46:28;;;;;;;55.00;25.30;;;5.20;97.30;;;;;;5026348;28;20203;-81
2022/01/01 01:48:55;;;;;;;46.13;21.67;;;5.20;97.20;;;;;;5024665;28;20859;-81
2022/01/01 01:51:21;;;;;;;41.47;19.90;;;5.20;97.70;;;;;;5024049;28;20188;-81
2022/01/01 01:53:47;;;;;;;39.07;17.03;;;5.20;98.10;;;;;;5024341;28;20258;-81
2022/01/01 01:56:13;;;;;;;31.80;17.53;;;5.10;98.50;;;;;;5025610;28;20185;-81
2022/01/01 01:58:39;;;;;;;37.40;19.97;;;5.10;98.50;;;;;;5024973;28;20258;-81
2022/01/01 02:03:37;;;;;;;43.60;19.20;;;5.20;98.50;;;;;;5025938;28;20223;-80
2022/01/01 02:06:06;;;;;;;41.43;19.47;;;5.20;98.40;;;;;;5024945;28;20181;-81
2022/01/01 02:08:32;;;;;;;69.80;29.20;;;5.20;98.10;;;;;;5024261;28;20262;-80
2022/01/01 02:10:58;;;;;;;60.93;29.63;;;5.20;98.00;;;;;;5018507;28;20234;-80
2022/01/01 02:13:39;;;;;;;56.77;28.47;;;5.20;98.10;;;;;;5025679;28;20639;-80
2022/01/01 02:16:50;;;;;;;55.50;25.80;;;5.20;98.30;;;;;;5021241;28;20198;-80
2022/01/01 02:18:59;;;;;;;56.80;25.67;;;5.20;98.10;;;;;;5025225;28;20674;-80
2022/01/01 02:21:24;;;;;;;54.33;26.67;;;5.20;98.10;;;;;;5024990;28;20211;-80
2022/01/01 02:23:57;;;;;;;58.57;27.47;;;5.20;97.90;;;;;;5023910;28;20239;-80
2022/01/01 02:26:34;;;;;;;67.93;29.37;;;5.20;97.80;;;;;;5021403;28;20180;-80
2022/01/01 02:29:00;;;;;;;61.17;30.50;;;5.20;97.70;;;;;;5018009;28;20330;-80
2022/01/01 02:31:26;;;;;;;60.67;29.90;;;5.10;97.70;;;;;;5024563;28;20181;-80
2022/01/01 02:33:52;;;;;;;65.50;31.20;;;5.10;97.50;;;;;;5023583;28;20279;-80
2022/01/01 02:36:38;;;;;;;61.47;28.27;;;5.10;97.50;;;;;;5022151;28;20611;-80
2022/01/01 02:39:15;;;;;;;64.13;29.73;;;5.10;97.40;;;;;;5025414;28;20688;-80
2022/01/01 02:41:46;;;;;;;67.90;30.57;;;5.10;97.30;;;;;;5020723;28;20188;-80
2022/01/01 02:44:12;;;;;;;61.13;28.57;;;5.10;97.20;;;;;;5023622;28;20212;-80
2022/01/01 02:46:38;;;;;;;60.57;28.67;;;5.00;97.00;;;;;;5021175;28;20185;-80
2022/01/01 02:49:05;;;;;;;65.70;30.07;;;5.00;97.00;;;;;;5025874;28;20192;-80
2022/01/01 02:51:30;;;;;;;62.80;28.60;;;5.00;96.80;;;;;;5024450;28;20271;-80
2022/01/01 02:53:56;;;;;;;60.90;29.57;;;5.00;96.80;;;;;;5020967;28;20326;-80
2022/01/01 02:56:23;;;;;;;55.90;27.90;;;5.00;97.10;;;;;;5020020;28;20184;-80
2022/01/01 02:58:49;;;;;;;56.77;29.80;;;4.90;97.10;;;;;;5038457;28;20191;-80
2022/01/01 03:01:14;;;;;;;48.57;25.17;;;4.90;97.20;;;;;;5023883;28;20662;-80
2022/01/01 03:03:41;;;;;;;51.87;23.97;;;4.90;97.40;;;;;;5021131;28;20265;-80
2022/01/01 03:06:07;;;;;;;50.43;23.40;;;4.90;97.50;;;;;;5023237;28;20215;-80
2022/01/01 03:08:33;;;;;;;50.50;22.40;;;4.90;97.50;;;;;;5022994;28;20188;-80
2022/01/01 03:11:02;;;;;;;46.30;22.23;;;4.90;97.70;;;;;;5021929;28;20314;-80
2022/01/01 03:13:28;;;;;;;51.40;22.60;;;4.90;97.80;;;;;;5023011;28;20266;-80
2022/01/01 03:15:54;;;;;;;49.07;23.07;;;4.90;98.00;;;;;;5021123;28;20187;-80
2022/01/01 03:18:20;;;;;;;47.27;21.63;;;4.80;97.80;;;;;;5022265;28;20180;-80
2022/01/01 03:20:45;;;;;;;39.03;20.63;;;4.90;97.90;;;;;;5025652;28;20180;-80
2022/01/01 03:23:11;;;;;;;53.67;21.83;;;4.80;98.10;;;;;;5023949;28;20219;-80
2022/01/01 03:25:37;;;;;;;45.07;21.57;;;4.80;98.20;;;;;;5023185;28;20180;-80
2022/01/01 03:28:03;;;;;;;41.60;20.13;;;4.90;98.30;;;;;;5022377;28;20181;-80
2022/01/01 03:30:29;;;;;;;51.43;23.50;;;4.90;98.20;;;;;;5021987;28;20184;-80
2022/01/01 03:32:55;;;;;;;41.93;22.47;;;4.90;98.20;;;;;;5025933;28;21003;-80
2022/01/01 03:35:20;;;;;;;37.97;20.33;;;4.90;98.10;;;;;;5022369;28;20689;-80
2022/01/01 03:37:46;;;;;;;46.37;22.57;;;5.00;97.90;;;;;;5025095;28;20246;-80
2022/01/01 03:40:12;;;;;;;36.83;20.57;;;5.00;97.90;;;;;;5019780;28;20198;-80
2022/01/01 03:42:37;;;;;;;43.83;22.60;;;5.00;97.90;;;;;;5019551;28;20214;-81
2022/01/01 03:45:05;;;;;;;40.23;20.97;;;5.00;97.80;;;;;;5024317;28;20216;-81
2022/01/01 03:47:31;;;;;;;44.40;21.07;;;5.00;97.70;;;;;;5018109;28;20238;-81
2022/01/01 03:49:56;;;;;;;48.27;22.57;;;5.00;97.70;;;;;;5021366;28;20192;-81
2022/01/01 03:52:22;;;;;;;45.23;21.90;;;5.00;97.50;;;;;;5024184;28;20180;-81
2022/01/01 03:54:48;;;;;;;44.80;20.63;;;5.00;97.40;;;;;;5021705;28;20876;-80
2022/01/01 03:57:14;;;;;;;41.70;18.83;;;5.00;97.40;;;;;;5020071;28;20941;-80
2022/01/01 03:59:39;;;;;;;31.30;15.50;;;5.00;97.40;;;;;;5022233;28;20779;-81
2022/01/01 04:02:05;;;;;;;33.77;17.27;;;5.00;97.40;;;;;;5024898;28;20572;-79
2022/01/01 04:04:31;;;;;;;34.20;15.73;;;4.90;97.40;;;;;;5024107;28;20251;-81
2022/01/01 04:06:57;;;;;;;38.50;18.63;;;4.90;97.50;;;;;;5024799;28;20191;-81
2022/01/01 04:09:23;;;;;;;39.57;18.70;;;4.90;97.60;;;;;;5022026;28;20189;-81
2022/01/01 04:11:51;;;;;;;38.83;17.93;;;4.90;97.70;;;;;;5021507;28;20198;-81
2022/01/01 04:14:17;;;;;;;42.40;19.50;;;4.80;97.80;;;;;;5018389;28;20192;-81
2022/01/01 04:16:45;;;;;;;44.83;20.00;;;4.80;97.90;;;;;;5018887;28;20242;-80
2022/01/01 04:19:11;;;;;;;40.57;20.23;;;4.80;97.90;;;;;;5018041;28;20185;-80
2022/01/01 04:21:37;;;;;;;35.33;18.00;;;4.90;98.00;;;;;;5024809;28;20196;-81
2022/01/01 04:24:03;;;;;;;40.33;19.40;;;4.90;97.90;;;;;;5023823;28;20243;-80
2022/01/01 04:26:29;;;;;;;44.53;20.27;;;4.90;97.90;;;;;;5024192;28;20192;-80
2022/01/01 04:28:54;;;;;;;45.13;19.67;;;4.90;97.90;;;;;;5021496;28;20191;-81
2022/01/01 04:31:20;;;;;;;33.50;18.53;;;5.00;97.80;;;;;;5025002;28;20203;-81
2022/01/01 04:33:46;;;;;;;41.60;18.17;;;5.00;97.80;;;;;;5027116;28;20188;-81
2022/01/01 04:36:12;;;;;;;35.27;17.83;;;5.00;97.80;;;;;;5025953;28;20258;-81
2022/01/01 04:38:40;;;;;;;34.03;18.37;;;5.00;97.60;;;;;;5027109;28;20185;-81
2022/01/01 04:41:15;;;;;;;35.23;17.53;;;5.00;97.50;;;;;;5026168;28;20210;-81
2022/01/01 04:43:42;;;;;;;39.63;17.87;;;5.00;97.30;;;;;;5028801;28;20261;-81
2022/01/01 04:46:08;;;;;;;33.40;16.40;;;5.00;97.30;;;;;;5021317;28;20199;-81
2022/01/01 04:48:37;;;;;;;29.97;16.37;;;5.00;97.30;;;;;;5025501;28;20184;-80
2022/01/01 04:51:11;;;;;;;33.90;15.20;;;5.00;97.50;;;;;;5025333;28;20907;-81
2022/01/01 04:53:43;;;;;;;26.13;14.50;;;5.00;97.60;;;;;;5025713;28;20193;-80
2022/01/01 04:56:09;;;;;;;28.43;14.60;;;5.00;97.70;;;;;;5025348;28;20188;-81
2022/01/01 04:58:35;;;;;;;30.03;15.73;;;5.00;97.80;;;;;;5025137;28;20189;-80
2022/01/01 05:01:01;;;;;;;34.47;16.07;;;5.00;97.80;;;;;;5026621;28;20200;-81
2022/01/01 05:03:27;;;;;;;16.70;11.53;;;5.00;97.90;;;;;;5026251;28;20216;-81
2022/01/01 05:05:53;;;;;;;22.00;12.90;;;5.00;97.90;;;;;;5022064;28;20176;-81
2022/01/01 05:08:18;;;;;;;27.10;14.77;;;5.00;98.10;;;;;;5028363;28;20188;-82
2022/01/01 05:10:44;;;;;;;26.53;14.80;;;5.10;98.20;;;;;;5023935;28;20227;-81
2022/01/01 05:13:10;;;;;;;28.67;14.83;;;5.10;98.20;;;;;;5019124;28;20200;-81
2022/01/01 05:15:36;;;;;;;28.40;15.00;;;5.20;98.00;;;;;;5023517;28;20188;-80
2022/01/01 05:18:02;;;;;;;30.83;15.90;;;5.20;98.00;;;;;;5024742;28;20189;-81
2022/01/01 05:20:27;;;;;;;29.40;16.40;;;5.20;97.90;;;;;;5022613;28;20666;-81
2022/01/01 05:22:53;;;;;;;28.63;15.83;;;5.30;97.70;;;;;;5025722;28;20262;-81
2022/01/01 05:25:19;;;;;;;28.73;15.83;;;5.30;97.60;;;;;;5020542;28;20189;-81
2022/01/01 05:27:44;;;;;;;34.70;16.13;;;5.30;97.50;;;;;;5026905;28;20872;-81
2022/01/01 05:30:11;;;;;;;34.17;17.67;;;5.30;97.50;;;;;;5025871;28;20670;-80
2022/01/01 05:32:37;;;;;;;33.30;17.13;;;5.20;97.60;;;;;;5026751;28;20566;-80
2022/01/01 05:35:04;;;;;;;35.93;16.17;;;5.20;97.50;;;;;;5025557;28;20185;-80
2022/01/01 05:37:30;;;;;;;29.70;15.53;;;5.20;97.50;;;;;;5027793;28;20189;-80
2022/01/01 05:39:55;;;;;;;27.90;15.30;;;5.20;97.70;;;;;;5024886;28;20187;-80
2022/01/01 05:42:21;;;;;;;20.83;12.43;;;5.20;97.70;;;;;;5025793;28;20204;-80
2022/01/01 05:44:47;;;;;;;24.50;12.67;;;5.20;97.80;;;;;;5025495;28;20172;-80
2022/01/01 05:47:12;;;;;;;22.33;12.10;;;5.20;97.80;;;;;;5023318;28;20220;-80
2022/01/01 05:49:38;;;;;;;22.27;10.90;;;5.10;98.00;;;;;;5020408;28;20183;-81
2022/01/01 05:52:04;;;;;;;23.20;11.63;;;5.20;97.90;;;;;;5025945;28;20196;-81
2022/01/01 05:54:30;;;;;;;27.07;13.63;;;5.10;98.00;;;;;;5022109;28;20741;-77
2022/01/01 05:56:55;;;;;;;22.53;12.30;;;5.10;98.20;;;;;;5026476;28;20662;-80
2022/01/01 05:59:21;;;;;;;21.63;11.67;;;5.10;98.10;;;;;;5023454;28;20184;-80
2022/01/01 06:01:47;;;;;;;19.87;11.20;;;5.00;98.10;;;;;;5024284;28;20184;-80
2022/01/01 06:04:12;;;;;;;23.27;11.20;;;5.00;98.30;;;;;;5025202;28;20212;-79
2022/01/01 06:06:38;;;;;;;20.57;10.50;;;5.00;98.30;;;;;;5024630;28;20854;-79
2022/01/01 06:09:04;;;;;;;13.67;8.60;;;5.00;98.50;;;;;;5024796;28;20269;-81
2022/01/01 06:11:30;;;;;;;16.30;8.53;;;4.90;98.50;;;;;;5025046;28;20212;-80
2022/01/01 06:13:55;;;;;;;14.83;9.33;;;5.00;98.50;;;;;;5021628;28;20172;-80
2022/01/01 06:16:21;;;;;;;15.83;8.50;;;5.00;98.50;;;;;;5024123;28;21659;-80
2022/01/01 06:18:46;;;;;;;14.63;9.37;;;5.00;98.50;;;;;;5025167;28;20247;-80
2022/01/01 06:21:12;;;;;;;21.53;9.23;;;5.00;98.50;;;;;;5022965;28;20239;-80
2022/01/01 06:23:39;;;;;;;13.97;9.03;;;5.10;98.50;;;;;;5026309;28;20223;-81
2022/01/01 06:26:06;;;;;;;21.40;10.53;;;5.10;98.50;;;;;;5025356;28;20276;-80
2022/01/01 06:28:32;;;;;;;22.07;10.47;;;5.20;98.50;;;;;;5024883;28;20219;-80
2022/01/01 06:30:57;;;;;;;17.80;9.73;;;5.20;98.50;;;;;;5023805;28;20632;-80
2022/01/01 06:33:23;;;;;;;20.90;10.23;;;5.30;98.50;;;;;;5024203;28;20192;-80
2022/01/01 06:35:49;;;;;;;23.33;11.43;;;5.30;98.50;;;;;;5026039;28;20204;-80
2022/01/01 06:38:15;;;;;;;19.07;10.43;;;5.40;98.40;;;;;;5025402;28;20196;-80
2022/01/01 06:40:42;;;;;;;17.40;9.67;;;5.40;98.30;;;;;;5021940;28;20246;-78
2022/01/01 06:43:10;;;;;;;17.83;10.00;;;5.50;98.30;;;;;;5021388;28;20219;-77
2022/01/01 06:45:36;;;;;;;20.27;11.33;;;5.60;98.30;;;;;;5022586;28;20184;-77
2022/01/01 06:48:02;;;;;;;20.27;11.53;;;5.70;98.20;;;;;;5021628;28;20663;-77
2022/01/01 06:50:29;;;;;;;24.77;10.87;;;5.80;98.00;;;;;;5024086;28;20173;-77
2022/01/01 06:52:54;;;;;;;23.30;11.83;;;5.90;97.90;;;;;;5023282;28;20180;-78
2022/01/01 06:55:20;;;;;;;23.50;11.37;;;6.00;97.80;;;;;;5022219;28;20190;-78
2022/01/01 06:57:47;;;;;;;22.67;12.13;;;6.10;98.20;;;;;;5021287;28;20188;-77
2022/01/01 07:00:15;;;;;;;26.90;12.83;;;6.30;98.30;;;;;;5018214;28;20181;-78
2022/01/01 07:02:42;;;;;;;25.97;13.37;;;6.50;97.80;;;;;;5022098;28;20212;-77
2022/01/01 07:05:08;;;;;;;28.00;14.03;;;6.60;97.10;;;;;;5021110;28;20187;-79
2022/01/01 07:07:35;;;;;;;25.27;12.97;;;6.60;96.70;;;;;;5020395;28;20680;-80
2022/01/01 07:10:01;;;;;;;22.53;12.93;;;6.70;96.40;;;;;;5023914;28;20180;-81
2022/01/01 07:12:27;;;;;;;24.37;12.90;;;6.80;96.90;;;;;;5025644;28;20684;-81
2022/01/01 07:14:52;;;;;;;22.87;12.70;;;7.10;97.40;;;;;;5024699;28;20185;-80
2022/01/01 07:17:18;;;;;;;23.47;13.73;;;7.50;98.00;;;;;;5021471;28;20192;-80
2022/01/01 07:19:44;;;;;;;20.80;12.50;;;7.90;97.80;;;;;;5025318;28;20181;-81
2022/01/01 07:22:09;;;;;;;21.43;12.63;;;8.30;97.10;;;;;;5024573;28;20655;-81
2022/01/01 07:24:35;;;;;;;27.60;14.17;;;8.60;96.00;;;;;;5023613;28;21020;-81
2022/01/01 07:27:01;;;;;;;23.73;13.70;;;8.80;95.10;;;;;;5023000;28;20210;-81
2022/01/01 07:29:26;;;;;;;24.95;13.13;;;9.20;94.90;;;;;;5024806;28;20247;-80
2022/01/01 07:31:53;;;;;;;23.08;11.38;;;9.50;94.30;;;;;;5026458;28;20184;-80
2022/01/01 07:34:22;;;;;;;19.38;11.52;;;10.10;94.70;;;;;;5026575;28;20196;-80
2022/01/01 07:36:48;;;;;;;18.08;10.10;;;10.70;93.70;;;;;;5019593;28;20276;-80
2022/01/01 07:39:15;;;;;;;24.75;12.60;;;11.40;93.30;;;;;;5022654;28;20552;-82
2022/01/01 07:41:42;;;;;;;20.88;12.20;;;12.10;92.60;;;;;;5021606;28;20250;-82
2022/01/01 07:44:09;;;;;;;23.58;12.13;;;12.90;91.30;;;;;;5022757;28;20216;-81
2022/01/01 07:46:35;;;;;;;20.70;11.35;;;13.70;89.80;;;;;;5045663;28;20584;-82
2022/01/01 07:49:01;;;;;;;18.35;10.55;;;14.40;88.00;;;;;;5021826;28;20242;-82
2022/01/01 07:51:26;;;;;;;15.30;9.68;;;15.20;86.50;;;;;;5020413;28;20215;-83
2022/01/01 07:53:52;;;;;;;13.73;9.07;;;15.90;83.30;;;;;;5011363;28;20191;-80
2022/01/01 07:56:18;;;;;;;12.32;9.20;;;16.60;83.50;;;;;;5016546;28;20198;-79
2022/01/01 07:58:43;;;;;;;12.43;8.65;;;17.30;81.10;;;;;;5009888;28;20216;-79
2022/01/01 08:01:09;;;;;;;14.05;8.43;;;17.90;78.10;;;;;;5003684;28;20187;-79
2022/01/01 08:03:35;;;;;;;10.77;8.50;;;18.30;75.10;;;;;;5008540;28;20247;-78
2022/01/01 08:06:01;;;;;;;9.55;8.20;;;18.60;73.70;;;;;;5007328;28;21087;-76
2022/01/01 08:08:27;;;;;;;12.55;7.88;;;18.70;73.30;;;;;;5009140;28;20187;-81
2022/01/01 08:10:53;;;;;;;10.25;7.85;;;18.80;73.00;;;;;;5009508;28;20719;-80
2022/01/01 08:13:24;;;;;;;10.57;7.78;;;19.00;73.80;;;;;;5012070;28;20286;-81
2022/01/01 08:15:53;;;;;;;13.32;9.15;;;19.40;73.70;;;;;;5013962;28;20211;-79
2022/01/01 08:18:19;;;;;;;16.33;11.13;;;19.80;69.60;;;;;;5014587;28;20179;-79
2022/01/01 08:20:45;;;;;;;13.55;9.38;;;19.60;66.40;;;;;;5012351;28;20196;-82
2022/01/01 08:23:11;;;;;;;10.60;8.50;;;18.90;66.60;;;;;;5016896;28;20668;-82
2022/01/01 08:25:37;;;;;;;9.38;7.70;;;18.00;67.70;;;;;;5013553;28;20188;-81
2022/01/01 08:28:03;;;;;;;4.50;4.20;;;17.20;69.50;;;;;;5014301;28;20176;-81
2022/01/01 08:30:29;;;;;;;4.20;3.80;;;16.30;71.00;;;;;;5015730;28;20867;-81
2022/01/01 08:33:01;;;;;;;3.03;2.83;;;15.70;72.20;;;;;;5011396;28;20199;-82
2022/01/01 08:35:29;;;;;;;3.67;2.83;;;15.20;73.50;;;;;;5011487;28;20249;-81
2022/01/01 08:37:54;;;;;;;2.78;2.00;;;14.90;74.40;;;;;;5014023;28;20196;-79
2022/01/01 08:40:20;;;;;;;2.30;2.20;;;14.70;75.90;;;;;;5013032;28;20658;-82
2022/01/01 08:42:46;;;;;;;1.67;1.67;;;14.70;75.40;;;;;;5015495;28;20212;-82
2022/01/01 08:45:12;;;;;;;1.80;1.70;;;14.70;75.90;;;;;;5015334;28;20694;-80
2022/01/01 08:47:37;;;;;;;1.90;1.80;;;15.10;77.40;;;;;;5010449;28;20203;-80
2022/01/01 08:50:04;;;;;;;1.70;1.70;;;15.80;75.40;;;;;;5014760;28;20237;-80
2022/01/01 08:52:29;;;;;;;1.67;1.58;;;16.40;73.70;;;;;;5007442;28;20188;-81
2022/01/01 08:54:55;;;;;;;1.33;1.30;;;16.80;72.30;;;;;;5014062;28;20261;-81
2022/01/01 08:57:22;;;;;;;1.00;1.00;;;16.80;71.80;;;;;;5007991;28;21086;-81
2022/01/01 08:59:48;;;;;;;0.70;0.70;;;16.80;71.40;;;;;;5010775;28;20289;-81
2022/01/01 09:02:14;;;;;;;2.15;0.82;;;16.90;71.60;;;;;;5009919;28;20947;-80
2022/01/01 09:04:39;;;;;;;0.75;0.75;;;17.10;70.80;;;;;;5009877;28;20228;-81
2022/01/01 09:07:05;;;;;;;1.20;1.20;;;17.10;70.50;;;;;;5012177;28;20184;-80
2022/01/01 09:09:31;;;;;;;1.40;1.30;;;17.00;70.90;;;;;;5012801;28;20192;-81
2022/01/01 09:11:57;;;;;;;1.65;1.55;;;16.80;70.60;;;;;;5009394;28;20669;-81
2022/01/01 09:14:23;;;;;;;1.65;1.63;;;16.60;70.60;;;;;;5013591;28;20192;-79
2022/01/01 09:16:49;;;;;;;1.27;1.27;;;16.40;71.20;;;;;;5012556;28;20184;-78
2022/01/01 09:19:15;;;;;;;1.40;1.30;;;16.70;71.20;;;;;;5011432;28;20187;-80
2022/01/01 09:21:41;;;;;;;1.45;1.45;;;17.10;70.50;;;;;;5016696;28;20210;-80
2022/01/01 09:24:07;;;;;;;1.30;1.20;;;17.60;69.00;;;;;;5016961;28;20310;-80
2022/01/01 09:26:33;;;;;;;1.33;1.33;;;18.00;67.70;;;;;;5009686;28;20215;-80
2022/01/01 09:28:58;;;;;;;1.63;1.52;;;18.20;66.80;;;;;;5014482;28;20196;-80
2022/01/01 09:31:24;;;;;;;1.33;1.33;;;18.40;66.70;;;;;;5010507;28;20176;-76
2022/01/01 09:33:51;;;;;;;1.05;1.05;;;18.60;66.20;;;;;;5011027;28;21350;-78
2022/01/01 09:36:17;;;;;;;1.50;1.40;;;18.70;65.60;;;;;;5012713;28;20194;-79
2022/01/01 09:38:44;;;;;;;0.90;0.90;;;18.80;66.20;;;;;;5011900;28;20255;-79
2022/01/01 09:41:10;;;;;;;1.00;1.00;;;19.00;64.90;;;;;;5021498;28;20184;-80
2022/01/01 09:43:36;;;;;;;1.38;1.27;;;18.90;65.00;;;;;;5047301;28;21066;-80
2022/01/01 09:46:03;;;;;;;3.03;1.27;;;19.10;65.20;;;;;;5019901;28;20181;-79
2022/01/01 09:48:30;;;;;;;1.20;1.20;;;19.20;64.50;;;;;;5017872;28;20189;-78
2022/01/01 09:50:59;;;;;;;1.20;1.20;;;18.80;65.20;;;;;;5014679;28;20260;-80
2022/01/01 09:53:26;;;;;;;2.13;1.38;;;18.40;65.10;;;;;;5017837;28;20195;-80
2022/01/01 09:55:53;;;;;;;1.17;1.17;;;17.90;66.50;;;;;;5020740;28;20272;-81
2022/01/01 09:58:28;;;;;;;1.08;1.08;;;17.40;66.60;;;;;;5020802;28;20263;-87
2022/01/01 10:00:54;;;;;;;2.17;1.42;;;16.70;67.80;;;;;;5023236;28;20267;-83
2022/01/01 10:03:40;;;;;;;1.08;1.08;;;16.20;69.20;;;;;;5022557;28;20664;-80
2022/01/01 10:06:16;;;;;;;1.40;1.40;;;15.60;70.60;;;;;;5044763;28;20188;-79
2022/01/01 10:08:46;;;;;;;1.20;1.20;;;15.10;71.40;;;;;;5021106;28;20179;-75
2022/01/01 10:11:16;;;;;;;2.03;1.83;;;14.70;72.50;;;;;;5016827;28;20258;-82
2022/01/01 10:13:42;;;;;;;1.63;1.63;;;14.30;73.70;;;;;;5017416;28;20223;-80
2022/01/01 10:16:10;;;;;;;1.38;1.30;;;14.00;74.70;;;;;;5016215;28;20271;-80
2022/01/01 10:18:44;;;;;;;1.70;1.60;;;13.80;75.80;;;;;;5012684;28;20250;-82
2022/01/01 10:21:13;;;;;;;1.38;1.38;;;13.70;76.60;;;;;;5015712;28;20187;-82
2022/01/01 10:23:42;;;;;;;2.15;1.67;;;13.60;76.40;;;;;;5015826;28;20308;-82
2022/01/01 10:29:11;;;;;;;2.10;2.00;;;14.00;75.70;;;;;;5021438;28;20195;-76
2022/01/01 10:31:37;;;;;;;2.53;1.90;;;14.40;73.90;;;;;;5021589;28;20287;-76
2022/01/01 10:34:13;;;;;;;2.33;2.20;;;14.40;73.90;;;;;;5015352;28;20188;-75
2022/01/01 10:36:39;;;;;;;1.70;1.70;;;14.20;73.80;;;;;;5014309;28;20860;-78
2022/01/01 10:39:13;;;;;;;1.70;1.67;;;14.10;74.20;;;;;;5041748;28;20187;-77
2022/01/01 10:41:46;;;;;;;1.60;1.60;;;14.00;74.70;;;;;;5016731;28;20235;-78
2022/01/01 10:44:12;;;;;;;2.13;2.03;;;14.10;75.00;;;;;;5014624;28;20401;-82
2022/01/01 10:46:38;;;;;;;1.90;1.80;;;14.50;74.30;;;;;;5018248;28;20191;-79
2022/01/01 10:52:20;;;;;;;2.67;2.47;;;15.50;72.10;;;;;;5010211;28;20184;-80
2022/01/01 10:54:58;;;;;;;1.70;1.60;;;15.90;71.50;;;;;;5010131;28;20279;-81
2022/01/01 10:57:35;;;;;;;2.33;2.20;;;16.40;69.80;;;;;;5011311;28;20196;-81
2022/01/01 11:00:12;;;;;;;3.58;2.42;;;16.70;69.00;;;;;;5020184;28;21006;-81
2022/01/01 11:02:41;;;;;;;2.65;2.47;;;16.70;68.20;;;;;;5019911;28;20183;-81
2022/01/01 11:05:07;;;;;;;3.33;2.33;;;16.70;68.20;;;;;;5042309;28;20177;-81
2022/01/01 11:07:34;;;;;;;2.90;2.70;;;16.50;68.70;;;;;;5018089;28;20187;-81
2022/01/01 11:10:00;;;;;;;2.22;2.17;;;16.40;68.70;;;;;;5019481;28;20184;-80
2022/01/01 11:12:28;;;;;;;2.72;2.13;;;16.40;69.50;;;;;;5018580;28;20284;-79
2022/01/01 11:14:55;;;;;;;1.75;1.65;;;16.50;69.00;;;;;;5019964;28;20679;-81
2022/01/01 11:17:22;;;;;;;1.52;1.52;;;16.50;67.60;;;;;;5016591;28;20176;-81
2022/01/01 11:19:48;;;;;;;1.77;1.67;;;16.30;66.90;;;;;;5017818;28;20191;-81
2022/01/01 11:22:16;;;;;;;1.70;1.60;;;16.30;67.70;;;;;;5019021;28;20230;-81
2022/01/01 11:24:42;;;;;;;2.25;2.00;;;16.50;67.00;;;;;;5014033;28;20220;-80
2022/01/01 11:27:08;;;;;;;2.10;2.00;;;16.50;66.60;;;;;;5014071;28;21104;-80
2022/01/01 11:29:35;;;;;;;1.83;1.77;;;16.20;67.20;;;;;;5042121;28;20226;-80
2022/01/01 11:32:04;;;;;;;2.03;1.92;;;15.80;68.00;;;;;;5008784;28;20305;-81
2022/01/01 11:34:36;;;;;;;1.73;1.67;;;15.30;69.20;;;;;;5002702;28;20199;-81
2022/01/01 11:37:02;;;;;;;5.55;2.33;;;15.00;70.40;;;;;;5001069;28;20192;-81
2022/01/01 11:39:28;;;;;;;2.05;1.80;;;14.80;70.90;;;;;;5003328;28;20184;-77
2022/01/01 11:42:12;;;;;;;2.05;1.95;;;14.50;71.60;;;;;;5019026;28;20837;-78
2022/01/01 11:44:42;;;;;;;1.75;1.65;;;14.20;71.90;;;;;;5018425;28;20339;-79
2022/01/01 11:47:19;;;;;;;3.35;2.13;;;13.90;73.10;;;;;;5014255;28;20287;-74
2022/01/01 11:49:45;;;;;;;3.00;2.47;;;13.60;74.50;;;;;;5009106;28;20223;-75
2022/01/01 11:52:11;;;;;;;2.53;2.15;;;13.40;75.70;;;;;;5016123;28;20599;-73
2022/01/01 11:54:39;;;;;;;3.00;2.90;;;13.20;76.40;;;;;;5014728;28;20194;-73
2022/01/01 11:57:24;;;;;;;2.88;2.67;;;13.00;77.50;;;;;;5041653;28;20654;-75
2022/01/01 12:00:01;;;;;;;3.05;2.85;;;12.60;79.00;;;;;;5007865;28;20177;-76
2022/01/01 12:02:32;;;;;;;3.70;3.22;;;12.40;79.90;;;;;;5014443;28;20184;-77
2022/01/01 12:05:14;;;;;;;3.70;3.30;;;12.20;80.70;;;;;;5014150;28;20191;-76
2022/01/01 12:07:59;;;;;;;3.15;2.63;;;12.10;81.40;;;;;;5014777;28;20176;-77
2022/01/01 12:10:48;;;;;;;2.97;2.78;;;11.90;82.20;;;;;;5013738;28;20303;-76
2022/01/01 12:13:14;;;;;;;3.35;2.83;;;11.70;82.40;;;;;;5011272;28;20208;-76
2022/01/01 12:15:48;;;;;;;3.42;3.10;;;11.60;82.70;;;;;;5015234;28;20185;-76
2022/01/01 12:18:16;;;;;;;4.07;3.85;;;11.50;83.20;;;;;;5010228;28;20226;-77
2022/01/01 12:21:03;;;;;;;4.03;3.45;;;11.50;83.30;;;;;;5006769;28;20897;-77
2022/01/01 12:23:37;;;;;;;4.28;3.65;;;11.50;83.40;;;;;;5012954;28;20216;-77
2022/01/01 12:26:09;;;;;;;3.58;3.30;;;11.40;83.80;;;;;;5006115;28;20989;-76
2022/01/01 12:28:36;;;;;;;5.43;3.90;;;11.40;83.90;;;;;;5016128;28;20192;-77
2022/01/01 12:31:07;;;;;;;4.25;3.85;;;11.40;84.30;;;;;;5043461;28;20180;-76
2022/01/01 12:33:41;;;;;;;3.78;3.47;;;11.30;84.70;;;;;;5015105;28;20199;-77
2022/01/01 12:36:09;;;;;;;7.20;4.28;;;11.30;84.90;;;;;;5019071;28;20270;-76
2022/01/01 12:38:39;;;;;;;5.18;3.78;;;11.20;85.30;;;;;;5036570;28;20622;-76
2022/01/01 12:41:06;;;;;;;6.20;4.15;;;11.10;85.80;;;;;;5036238;28;21057;-77
2022/01/01 12:43:56;;;;;;;6.50;3.75;;;11.00;86.20;;;;;;5012779;28;20223;-77
2022/01/01 12:46:34;;;;;;;4.00;3.70;;;10.90;86.40;;;;;;5038857;28;20242;-77
2022/01/01 12:49:02;;;;;;;7.30;3.75;;;10.90;86.90;;;;;;5036624;28;20716;-78
2022/01/01 12:51:45;;;;;;;4.00;3.15;;;10.90;87.10;;;;;;5014486;28;20181;-78